PATC/TNC METAR and TAF weather

Enter ICAO airport designator
Station Type Date Time Source
PATC METAR 2019/02/21 15:55 UTC NOAA

PATC 211555Z AUTO VRB06KT 10SM -SN OVC023 M03/M05 A2959 RMK AO2 SNB1455E1518B1536 SLP028 P0000 T10351052


Station Type Date Time Source
PATC Decoded METAR 2019/02/21 15:55 UTC NOAA

Tin City Airways Facilities Sector, AK, United States (PATC) 65-34N 167-55W
Feb 21, 2019 - 10:55 AM EST / 2019.02.21 1555 UTC
Wind: Variable at 7 MPH (6 KT):0
Visibility: 10 mile(s):0
Sky conditions: overcast
Weather: light snow
Precipitation last hour: A trace
Temperature: 25.7 F (-3.5 C)
Windchill: 17 F (-8 C):1
Dew Point: 22.6 F (-5.2 C)
Relative Humidity: 87%
Pressure (altimeter): 29.59 in. Hg (1002 hPa)
ob: PATC 211555Z AUTO VRB06KT 10SM -SN OVC023 M03/M05 A2959 RMK AO2 SNB1455E1518B1536 SLP028 P0000 T10351052
cycle: 16

Station Type Date Time Source
PATC TAF 2016/08/27 04:12 UTC NOAA

TAF PATC 270400Z 2704/2810 18012G18KT 0400 FG OVC002 QNH3015INS TX10/2718Z TN06/2710Z


Example: see airport list